Plum Branch, SC (29845)

5:20 PM EST on February 08, 2016 (GMT -0500)
Plum Trial | | Change Station
CLOSE
Current Station
Personal Weather Station
Location: Plum Branch, SC
Elevation: 489 ft
Nearby Weather Stations

Elev 489 ft 33.85 °N, 82.26 °W | Updated 30 seconds ago

Overcast
Overcast
50.9 °F
Feels Like 50.9 °F
N
0.0
Wind Variable Wind from WNW
Gusts 10.3 mph

Today
High -- | Low -- °F
--% Chance of Precip.
Yesterday
High -- | Low -- °F
Precip. -- in
Pressure 29.77 in
Visibility 10.0 miles
Clouds Scattered Clouds 6500 ft
Scattered Clouds 8000 ft
Mostly Cloudy 11000 ft
Dew Point 34 °F
Humidity 53%
Rainfall 0.00 in
Snow Depth Not available.
7:20 AM 6:06 PM
New Moon, 0% visible
METAR KHQU 082155Z AUTO 24007G20KT 210V280 10SM SCT065 SCT080 BKN110 11/03 A2977 RMK AO1 T01070028
Pressure 29.77 in
Visibility 10.0 miles
Clouds Scattered Clouds 6500 ft
Scattered Clouds 8000 ft
Mostly Cloudy 11000 ft
Dew Point 34 °F
Humidity 53%
Rainfall 0.00 in
Snow Depth Not available.
7:20 AM 6:06 PM
New Moon, 0% visible
METAR KHQU 082155Z AUTO 24007G20KT 210V280 10SM SCT065 SCT080 BKN110 11/03 A2977 RMK AO1 T01070028

10-Day Weather Forecast

Almanac

Astronomy

Feb. 08, 2016 Rise Set
Actual Time
Civil Twilight
Nautical Twilight
Astronomical Twilight
Moon
Length of Visible Light
Length of Day
Tomorrow will be .
, % of the Moon is Illuminated

Today's Extremes

State Highs State Lows

Community

WunderPhotos

Upload Photos

1,891,516 photos uploaded!

WunderBlog® & News

Nearby

Air Quality

  Air Quality AQ Index Pollutant
Not available.

Snow Depth

Station Depth Elevation

Earthquake Activity

City Distance Mag. Time & Date
Minimum magnitude displayed is 2.5.

Coastal Water Temperatures

Place Temperature

Stations

Nearby Weather Stations

Station Location Temp. Windchill Dew Point Humidity Wind Precip. Elev Updated Type
                   

Watches & Warnings

There are currently no watches in effect.